createdAt,value
2018-12-22T00:02:26.379Z,33.73
2018-12-22T00:04:52.943Z,24.00
2018-12-22T00:07:19.520Z,21.13
2018-12-22T00:09:46.229Z,27.57
2018-12-22T00:12:13.116Z,30.33
2018-12-22T00:14:39.816Z,30.90
2018-12-22T00:17:06.404Z,26.53
2018-12-22T00:19:32.980Z,25.67
2018-12-22T00:21:59.623Z,21.97
2018-12-22T00:24:26.256Z,22.03
2018-12-22T00:26:52.897Z,24.37
2018-12-22T00:29:19.532Z,26.80
2018-12-22T00:31:46.248Z,21.93
2018-12-22T00:34:12.793Z,25.97
2018-12-22T00:36:39.449Z,29.63
2018-12-22T00:39:06.093Z,20.63
2018-12-22T00:41:32.664Z,21.10
2018-12-22T00:43:59.257Z,23.83
2018-12-22T00:46:27.434Z,27.63
2018-12-22T00:48:54.009Z,27.03
2018-12-22T00:51:20.605Z,25.93
2018-12-22T00:53:47.240Z,26.00
2018-12-22T00:56:14.081Z,26.33
2018-12-22T00:58:40.721Z,23.93
2018-12-22T01:01:07.328Z,18.03
2018-12-22T01:03:34.269Z,24.40
2018-12-22T01:06:00.840Z,27.80
2018-12-22T01:08:27.471Z,28.47
2018-12-22T01:10:54.235Z,23.33
2018-12-22T01:13:20.952Z,18.57
2018-12-22T01:15:47.523Z,20.27
2018-12-22T01:18:14.140Z,20.60
2018-12-22T01:20:40.863Z,22.60
2018-12-22T01:23:07.699Z,22.90
2018-12-22T01:25:34.344Z,23.47
2018-12-22T01:28:01.696Z,21.93
2018-12-22T01:30:28.332Z,23.23
2018-12-22T01:32:55.424Z,20.03
2018-12-22T01:35:22.037Z,27.10
2018-12-22T01:37:48.652Z,20.13
2018-12-22T01:40:15.287Z,18.60
2018-12-22T01:42:41.929Z,18.70
2018-12-22T01:45:08.564Z,23.20
2018-12-22T01:47:35.195Z,22.30
2018-12-22T01:50:01.779Z,19.67
2018-12-22T01:52:28.476Z,26.43
2018-12-22T01:54:55.320Z,21.50
2018-12-22T01:57:21.952Z,29.00
2018-12-22T01:59:48.588Z,18.03
2018-12-22T02:02:15.229Z,21.77
2018-12-22T02:04:41.869Z,22.10
2018-12-22T02:07:08.548Z,24.47
2018-12-22T02:09:35.461Z,19.13
2018-12-22T02:12:02.061Z,20.43
2018-12-22T02:14:28.715Z,20.57
2018-12-22T02:16:55.352Z,23.00
2018-12-22T02:19:22.807Z,21.90
2018-12-22T02:21:49.453Z,19.93
2018-12-22T02:24:16.307Z,25.53
2018-12-22T02:26:42.912Z,18.27
2018-12-22T02:29:09.560Z,23.90
2018-12-22T02:31:36.295Z,24.30
2018-12-22T02:34:03.528Z,17.27
2018-12-22T02:36:30.109Z,22.77
2018-12-22T02:38:56.832Z,18.50
2018-12-22T02:41:23.552Z,24.73
2018-12-22T02:43:50.144Z,15.87
2018-12-22T02:46:16.736Z,21.10
2018-12-22T02:48:44.539Z,22.87
2018-12-22T02:51:11.241Z,25.37
2018-12-22T02:53:37.888Z,22.30
2018-12-22T02:56:04.456Z,21.03
2018-12-22T02:58:31.152Z,21.47
2018-12-22T03:00:58.509Z,15.23
2018-12-22T03:03:25.144Z,22.00
2018-12-22T03:05:51.731Z,22.63
2018-12-22T03:08:19.028Z,17.57
2018-12-22T03:10:45.873Z,18.93
2018-12-22T03:13:12.661Z,22.13
2018-12-22T03:15:39.236Z,14.77
2018-12-22T03:18:05.884Z,20.93
2018-12-22T03:20:32.520Z,21.27
2018-12-22T03:22:59.165Z,18.67
2018-12-22T03:25:25.765Z,17.63
2018-12-22T03:27:52.344Z,22.00
2018-12-22T03:30:19.237Z,20.53
2018-12-22T03:32:46.017Z,16.27
2018-12-22T03:35:12.616Z,14.00
2018-12-22T03:37:39.289Z,19.73
2018-12-22T03:40:07.312Z,14.23
2018-12-22T03:42:34.005Z,14.53
2018-12-22T03:45:00.811Z,15.00
2018-12-22T03:47:27.476Z,18.73
2018-12-22T03:49:54.122Z,19.90
2018-12-22T03:52:20.797Z,21.40
2018-12-22T03:54:47.492Z,16.53
2018-12-22T03:57:14.125Z,16.27
2018-12-22T03:59:40.755Z,14.53
2018-12-22T04:02:07.423Z,19.93
2018-12-22T04:04:34.040Z,13.37
2018-12-22T04:07:00.680Z,15.03
2018-12-22T04:09:27.312Z,12.97
2018-12-22T04:11:53.949Z,13.40
2018-12-22T04:14:20.596Z,12.27
2018-12-22T04:16:47.325Z,9.60
2018-12-22T04:19:13.961Z,6.97
2018-12-22T04:21:40.968Z,7.37
2018-12-22T04:24:07.645Z,8.73
2018-12-22T04:26:34.375Z,7.33
2018-12-22T04:29:01.020Z,5.97
2018-12-22T04:31:27.593Z,3.87
2018-12-22T04:33:54.176Z,5.80
2018-12-22T04:36:20.748Z,3.13
2018-12-22T04:38:47.364Z,7.27
2018-12-22T04:41:13.995Z,4.07
2018-12-22T04:43:40.633Z,3.80
2018-12-22T04:46:07.273Z,4.37
2018-12-22T04:48:33.924Z,5.70
2018-12-22T04:51:00.532Z,7.00
2018-12-22T04:53:27.284Z,8.30
2018-12-22T04:55:53.900Z,3.60
2018-12-22T04:58:20.556Z,6.63
2018-12-22T05:00:47.148Z,7.03
2018-12-22T05:03:14.548Z,6.03
2018-12-22T05:05:41.124Z,11.47
2018-12-22T05:08:07.721Z,3.67
2018-12-22T05:10:34.316Z,5.63
2018-12-22T05:13:00.989Z,6.60
2018-12-22T05:15:27.580Z,5.07
2018-12-22T05:17:54.156Z,6.60
2018-12-22T05:20:20.749Z,7.83
2018-12-22T05:22:47.518Z,7.93
2018-12-22T05:25:14.084Z,4.77
2018-12-22T05:27:40.661Z,7.37
2018-12-22T05:30:07.668Z,6.40
2018-12-22T05:32:34.251Z,5.00
2018-12-22T05:35:00.846Z,7.60
2018-12-22T05:37:27.438Z,5.40
2018-12-22T05:39:54.004Z,5.97
2018-12-22T05:42:20.635Z,10.83
2018-12-22T05:44:47.276Z,6.93
2018-12-22T05:47:13.926Z,9.30
2018-12-22T05:49:40.560Z,5.27
2018-12-22T05:52:07.185Z,8.53
2018-12-22T05:54:33.830Z,16.77
2018-12-22T05:57:00.430Z,4.80
2018-12-22T05:59:27.096Z,7.30
2018-12-22T06:01:53.746Z,7.87
2018-12-22T06:04:20.364Z,8.73
2018-12-22T06:06:47.460Z,7.50
2018-12-22T06:09:14.032Z,7.30
2018-12-22T06:11:40.692Z,8.80
2018-12-22T06:14:07.328Z,10.77
2018-12-22T06:16:33.918Z,5.90
2018-12-22T06:19:00.563Z,7.23
2018-12-22T06:21:27.444Z,11.07
2018-12-22T06:23:54.076Z,9.43
2018-12-22T06:26:20.717Z,7.80
2018-12-22T06:28:47.481Z,8.93
2018-12-22T06:31:14.197Z,12.43
2018-12-22T06:33:40.792Z,10.03
2018-12-22T06:36:07.472Z,7.20
2018-12-22T06:38:34.108Z,7.77
2018-12-22T06:41:00.916Z,10.93
2018-12-22T06:43:27.589Z,12.07
2018-12-22T06:45:54.221Z,9.40
2018-12-22T06:48:20.861Z,7.37
2018-12-22T06:50:47.945Z,8.47
2018-12-22T06:53:14.568Z,6.60
2018-12-22T06:55:41.865Z,9.07
2018-12-22T06:58:08.539Z,6.37
2018-12-22T07:00:35.277Z,6.63
2018-12-22T07:03:01.913Z,6.47
2018-12-22T07:05:28.544Z,6.03
2018-12-22T07:07:55.111Z,5.33
2018-12-22T07:10:21.706Z,6.53
2018-12-22T07:12:48.353Z,2.93
2018-12-22T07:15:14.944Z,3.60
2018-12-22T07:17:41.540Z,3.13
2018-12-22T07:20:08.156Z,1.43
2018-12-22T07:22:34.772Z,3.23
2018-12-22T07:25:01.360Z,0.50
2018-12-22T07:27:27.997Z,2.80
2018-12-22T07:29:54.640Z,1.37
2018-12-22T07:32:21.208Z,1.10
2018-12-22T07:34:47.812Z,3.03
2018-12-22T07:37:14.388Z,3.47
2018-12-22T07:39:40.956Z,4.77
2018-12-22T07:42:07.541Z,3.83
2018-12-22T07:44:34.232Z,6.27
2018-12-22T07:47:00.859Z,7.40
2018-12-22T07:49:27.940Z,3.30
2018-12-22T07:51:54.521Z,5.03
2018-12-22T07:54:21.377Z,5.83
2018-12-22T07:56:48.025Z,4.27
2018-12-22T07:59:14.660Z,6.40
2018-12-22T08:01:41.297Z,9.43
2018-12-22T08:04:08.288Z,8.83
2018-12-22T08:06:34.984Z,10.93
2018-12-22T08:09:02.357Z,8.30
2018-12-22T08:11:29.077Z,6.20
2018-12-22T08:13:55.710Z,9.63
2018-12-22T08:16:22.449Z,6.50
2018-12-22T08:18:49.084Z,9.93
2018-12-22T08:21:15.724Z,9.17
2018-12-22T08:23:42.365Z,12.13
2018-12-22T08:26:08.996Z,7.63
2018-12-22T08:28:35.645Z,13.27
2018-12-22T08:31:02.373Z,7.20
2018-12-22T08:33:28.954Z,11.23
2018-12-22T08:35:55.644Z,8.40
2018-12-22T08:38:22.696Z,4.97
2018-12-22T08:40:49.880Z,12.97
2018-12-22T08:43:16.468Z,8.37
2018-12-22T08:45:43.045Z,11.53
2018-12-22T08:48:09.648Z,6.37
2018-12-22T08:50:36.288Z,6.77
2018-12-22T08:53:02.884Z,6.03
2018-12-22T08:55:29.560Z,9.33
2018-12-22T08:57:56.201Z,6.10
2018-12-22T09:00:23.013Z,8.97
2018-12-22T09:02:49.680Z,7.63
2018-12-22T09:05:16.247Z,5.70
2018-12-22T09:07:42.852Z,5.50
2018-12-22T09:10:09.456Z,7.83
2018-12-22T09:12:36.129Z,5.57
2018-12-22T09:15:03.444Z,7.47
2018-12-22T09:17:30.144Z,5.23
2018-12-22T09:19:56.748Z,7.03
2018-12-22T09:22:23.320Z,9.67
2018-12-22T09:24:49.902Z,3.73
2018-12-22T09:27:16.467Z,5.47
2018-12-22T09:29:43.052Z,6.27
2018-12-22T09:32:09.664Z,4.73
2018-12-22T09:34:36.240Z,5.33
2018-12-22T09:37:02.900Z,10.03
2018-12-22T09:39:29.614Z,4.00
2018-12-22T09:41:56.157Z,6.37
2018-12-22T09:44:22.813Z,8.17
2018-12-22T09:46:49.409Z,8.17
2018-12-22T09:49:16.940Z,6.53
2018-12-22T09:51:43.529Z,9.27
2018-12-22T09:54:10.188Z,6.70
2018-12-22T09:56:36.780Z,7.33
2018-12-22T09:59:03.487Z,9.90
2018-12-22T10:01:30.192Z,13.47
2018-12-22T10:03:57.167Z,10.30
2018-12-22T10:06:23.767Z,13.13
2018-12-22T10:08:50.416Z,14.13
2018-12-22T10:11:17.025Z,13.40
2018-12-22T10:13:43.604Z,13.30
2018-12-22T10:16:10.183Z,16.77
2018-12-22T10:18:36.756Z,17.07
2018-12-22T10:21:03.339Z,21.17
2018-12-22T10:23:29.940Z,13.50
2018-12-22T10:25:56.535Z,12.53
2018-12-22T10:28:23.104Z,15.13
2018-12-22T10:30:49.708Z,15.73
2018-12-22T10:33:16.304Z,14.67
2018-12-22T10:35:42.876Z,13.67
2018-12-22T10:38:09.456Z,20.90
2018-12-22T10:40:36.039Z,7.70
2018-12-22T10:43:02.640Z,16.10
2018-12-22T10:45:29.232Z,15.30
2018-12-22T10:47:55.828Z,14.10
2018-12-22T10:50:22.496Z,11.70
2018-12-22T10:52:49.069Z,10.60
2018-12-22T10:55:15.664Z,8.83
2018-12-22T10:57:42.237Z,12.07
2018-12-22T11:00:10.070Z,13.77
2018-12-22T11:02:36.671Z,13.80
2018-12-22T11:05:04.089Z,7.60
2018-12-22T11:07:30.728Z,10.00
2018-12-22T11:09:57.361Z,10.20
2018-12-22T11:12:23.996Z,9.40
2018-12-22T11:14:50.627Z,8.97
2018-12-22T11:17:17.200Z,12.60
2018-12-22T11:19:43.804Z,5.43
2018-12-22T11:22:10.440Z,9.33
2018-12-22T11:24:37.072Z,7.90
2018-12-22T11:27:03.711Z,8.53
2018-12-22T11:29:30.357Z,10.57
2018-12-22T11:31:56.992Z,8.13
2018-12-22T11:34:23.559Z,10.37
2018-12-22T11:36:50.147Z,8.97
2018-12-22T11:39:16.738Z,7.70
2018-12-22T11:41:43.304Z,5.97
2018-12-22T11:44:10.803Z,10.23
2018-12-22T11:46:37.613Z,8.20
2018-12-22T11:49:04.820Z,13.03
2018-12-22T11:51:31.416Z,11.50
2018-12-22T11:53:58.053Z,7.17
2018-12-22T11:56:24.683Z,8.97
2018-12-22T11:58:52.042Z,10.80
2018-12-22T12:01:18.680Z,14.27
2018-12-22T12:03:45.318Z,9.70
2018-12-22T12:06:11.883Z,10.87
2018-12-22T12:08:38.463Z,7.17
2018-12-22T12:11:05.132Z,9.17
2018-12-22T12:13:31.700Z,12.37
2018-12-22T12:15:59.419Z,11.57
2018-12-22T12:18:29.750Z,14.20
2018-12-22T12:20:56.420Z,16.47
2018-12-22T12:23:23.008Z,8.73
2018-12-22T12:25:49.660Z,12.37
2018-12-22T12:28:16.288Z,9.57
2018-12-22T12:30:43.141Z,9.73
2018-12-22T12:33:10.495Z,12.27
2018-12-22T12:35:37.123Z,7.10
2018-12-22T12:38:03.760Z,9.03
2018-12-22T12:40:30.400Z,11.20
2018-12-22T12:42:57.047Z,10.90
2018-12-22T12:45:23.676Z,13.83
2018-12-22T12:47:50.253Z,5.03
2018-12-22T12:50:18.684Z,12.23
2018-12-22T12:52:45.309Z,9.90
2018-12-22T12:55:11.936Z,5.63
2018-12-22T12:57:38.536Z,10.63
2018-12-22T13:00:20.480Z,12.33
2018-12-22T13:02:47.067Z,11.00
2018-12-22T13:05:13.663Z,9.57
2018-12-22T13:07:40.259Z,12.80
2018-12-22T13:10:13.672Z,11.23
2018-12-22T13:12:51.617Z,12.27
2018-12-22T13:15:18.311Z,13.40
2018-12-22T13:17:44.876Z,16.47
2018-12-22T13:20:11.444Z,8.63
2018-12-22T13:22:38.031Z,8.60
2018-12-22T13:25:05.236Z,11.13
2018-12-22T13:27:31.804Z,6.93
2018-12-22T13:29:58.396Z,12.57
2018-12-22T13:32:25.016Z,13.70
2018-12-22T13:34:51.612Z,9.10
2018-12-22T13:37:18.228Z,10.27
2018-12-22T13:39:44.840Z,9.43
2018-12-22T13:42:11.453Z,10.13
2018-12-22T13:44:38.081Z,14.13
2018-12-22T13:47:04.679Z,13.07
2018-12-22T13:49:31.395Z,10.13
2018-12-22T13:51:58.129Z,10.43
2018-12-22T13:54:24.719Z,8.10
2018-12-22T13:56:51.367Z,14.00
2018-12-22T13:59:17.958Z,8.90
2018-12-22T14:01:45.165Z,8.73
2018-12-22T14:04:11.748Z,8.97
2018-12-22T14:06:38.932Z,11.03
2018-12-22T14:09:06.884Z,9.90
2018-12-22T14:11:33.544Z,13.30
2018-12-22T14:14:00.124Z,16.83
2018-12-22T14:16:28.054Z,6.53
2018-12-22T14:18:54.674Z,11.30
2018-12-22T14:21:21.266Z,15.20
2018-12-22T14:23:50.628Z,13.83
2018-12-22T14:26:17.256Z,10.67
2018-12-22T14:28:43.941Z,10.23
2018-12-22T14:31:10.568Z,10.47
2018-12-22T14:33:37.168Z,11.83
2018-12-22T14:36:04.521Z,9.47
2018-12-22T14:38:31.120Z,13.43
2018-12-22T14:40:57.694Z,11.73
2018-12-22T14:43:24.289Z,13.10
2018-12-22T14:45:50.973Z,11.97
2018-12-22T14:48:17.609Z,12.33
2018-12-22T14:50:44.216Z,12.60
2018-12-22T14:53:10.783Z,12.93
2018-12-22T14:55:37.359Z,10.73
2018-12-22T14:58:04.488Z,14.37
2018-12-22T15:00:31.055Z,14.27
2018-12-22T15:02:57.652Z,10.13
2018-12-22T15:05:24.248Z,16.07
2018-12-22T15:07:50.826Z,13.67
2018-12-22T15:10:17.404Z,10.53
2018-12-22T15:12:43.980Z,17.63
2018-12-22T15:15:11.000Z,15.17
2018-12-22T15:17:39.000Z,13.07
2018-12-22T15:20:07.520Z,15.60
2018-12-22T15:22:34.094Z,14.77
2018-12-22T15:25:00.752Z,14.77
2018-12-22T15:27:27.328Z,16.20
2018-12-22T15:29:53.924Z,11.77
2018-12-22T15:32:20.541Z,12.90
2018-12-22T15:34:47.190Z,11.80
2018-12-22T15:37:13.780Z,13.47
2018-12-22T15:39:40.356Z,16.63
2018-12-22T15:42:06.962Z,14.87
2018-12-22T15:44:33.536Z,15.57
2018-12-22T15:47:00.110Z,14.23
2018-12-22T15:49:26.700Z,12.13
2018-12-22T15:51:53.287Z,14.93
2018-12-22T15:54:19.864Z,19.43
2018-12-22T15:56:46.456Z,14.67
2018-12-22T15:59:13.044Z,12.97
2018-12-22T16:01:40.400Z,13.70
2018-12-22T16:04:07.099Z,14.50
2018-12-22T16:06:33.780Z,10.97
2018-12-22T16:09:00.516Z,11.00
2018-12-22T16:11:27.088Z,15.27
2018-12-22T16:13:53.659Z,14.70
2018-12-22T16:16:20.864Z,17.07
2018-12-22T16:18:47.496Z,11.87
2018-12-22T16:21:14.593Z,13.90
2018-12-22T16:23:41.294Z,22.53
2018-12-22T16:26:07.934Z,13.90
2018-12-22T16:28:34.508Z,14.70
2018-12-22T16:31:01.118Z,17.97
2018-12-22T16:33:27.787Z,19.93
2018-12-22T16:35:54.383Z,14.60
2018-12-22T16:38:21.006Z,12.53
2018-12-22T16:40:47.601Z,15.60
2018-12-22T16:43:14.221Z,17.23
2018-12-22T16:45:41.022Z,13.20
2018-12-22T16:48:07.613Z,17.43
2018-12-22T16:50:35.308Z,16.83
2018-12-22T16:53:01.905Z,13.30
2018-12-22T16:55:28.516Z,13.80
2018-12-22T16:57:57.944Z,13.53
2018-12-22T17:00:29.225Z,12.30
2018-12-22T17:02:55.825Z,19.87
2018-12-22T17:05:22.420Z,18.03
2018-12-22T17:07:49.004Z,9.70
2018-12-22T17:10:15.596Z,18.27
2018-12-22T17:12:42.189Z,18.80
2018-12-22T17:15:10.772Z,14.70
2018-12-22T17:17:37.397Z,16.83
2018-12-22T17:20:05.996Z,16.30
2018-12-22T17:22:32.712Z,21.57
2018-12-22T17:24:59.323Z,21.57
2018-12-22T17:27:25.938Z,16.07
2018-12-22T17:29:52.532Z,19.00
2018-12-22T17:32:19.104Z,17.20
2018-12-22T17:34:45.701Z,16.40
2018-12-22T17:37:12.324Z,15.43
2018-12-22T17:39:38.919Z,13.47
2018-12-22T17:42:05.520Z,17.90
2018-12-22T17:44:32.107Z,24.37
2018-12-22T17:46:58.676Z,13.77
2018-12-22T17:49:25.273Z,14.93
2018-12-22T17:51:51.980Z,17.70
2018-12-22T17:54:18.576Z,16.23
2018-12-22T17:56:45.153Z,22.80
2018-12-22T17:59:11.777Z,28.07
2018-12-22T18:01:38.373Z,26.33
2018-12-22T18:04:04.960Z,18.40
2018-12-22T18:06:31.532Z,17.80
2018-12-22T18:08:58.131Z,17.97
2018-12-22T18:11:24.705Z,24.40
2018-12-22T18:13:51.284Z,16.80
2018-12-22T18:16:17.875Z,13.20
2018-12-22T18:18:44.453Z,19.27
2018-12-22T18:21:11.039Z,21.13
2018-12-22T18:23:37.612Z,17.30
2018-12-22T18:26:04.220Z,17.73
2018-12-22T18:28:30.793Z,19.23
2018-12-22T18:30:57.383Z,19.60
2018-12-22T18:33:23.965Z,20.57
2018-12-22T18:35:50.553Z,19.87
2018-12-22T18:38:17.130Z,21.00
2018-12-22T18:40:43.796Z,15.47
2018-12-22T18:43:10.384Z,23.47
2018-12-22T18:45:36.973Z,21.17
2018-12-22T18:48:03.573Z,21.47
2018-12-22T18:50:30.227Z,18.30
2018-12-22T18:52:56.851Z,26.30
2018-12-22T18:55:23.458Z,15.67
2018-12-22T18:57:50.158Z,16.77
2018-12-22T19:00:19.651Z,18.00
2018-12-22T19:02:46.344Z,19.40
2018-12-22T19:05:13.247Z,13.20
2018-12-22T19:07:39.840Z,14.53
2018-12-22T19:10:12.324Z,21.40
2018-12-22T19:12:38.892Z,13.90
2018-12-22T19:15:05.508Z,19.60
2018-12-22T19:17:32.100Z,19.10
2018-12-22T19:19:58.696Z,16.83
2018-12-22T19:22:25.284Z,15.40
2018-12-22T19:24:51.860Z,21.80
2018-12-22T19:27:18.448Z,23.33
2018-12-22T19:29:45.011Z,18.10
2018-12-22T19:32:11.596Z,23.03
2018-12-22T19:34:38.208Z,27.20
2018-12-22T19:37:04.779Z,17.00
2018-12-22T19:39:31.528Z,23.00
2018-12-22T19:41:58.211Z,21.50
2018-12-22T19:44:24.784Z,20.97
2018-12-22T19:46:51.364Z,24.63
2018-12-22T19:49:17.956Z,21.17
2018-12-22T19:51:44.533Z,24.00
2018-12-22T19:54:11.156Z,21.13
2018-12-22T19:56:37.729Z,22.67
2018-12-22T19:59:04.311Z,18.90
2018-12-22T20:01:30.880Z,19.83
2018-12-22T20:04:02.005Z,15.90
2018-12-22T20:06:26.034Z,18.10
2018-12-22T20:08:52.624Z,20.57
2018-12-22T20:11:19.239Z,21.90
2018-12-22T20:13:45.830Z,22.07
2018-12-22T20:16:12.400Z,18.93
2018-12-22T20:18:38.987Z,20.67
2018-12-22T20:21:05.574Z,23.87
2018-12-22T20:23:32.156Z,16.23
2018-12-22T20:25:58.752Z,22.47
2018-12-22T20:28:25.372Z,17.00
2018-12-22T20:30:51.948Z,17.53
2018-12-22T20:33:18.540Z,16.27
2018-12-22T20:35:45.114Z,14.40
2018-12-22T20:38:11.679Z,16.13
2018-12-22T20:40:38.272Z,15.60
2018-12-22T20:43:04.890Z,23.53
2018-12-22T20:45:31.480Z,15.63
2018-12-22T20:47:58.072Z,24.47
2018-12-22T20:50:24.648Z,17.53
2018-12-22T20:52:51.265Z,15.50
2018-12-22T20:55:17.840Z,18.43
2018-12-22T20:57:44.415Z,14.97
2018-12-22T21:00:10.993Z,17.47
2018-12-22T21:02:37.583Z,19.47
2018-12-22T21:05:04.204Z,20.80
2018-12-22T21:07:30.773Z,18.37
2018-12-22T21:09:57.371Z,19.10
2018-12-22T21:12:23.941Z,16.60
2018-12-22T21:14:50.612Z,21.00
2018-12-22T21:17:17.204Z,17.23
2018-12-22T21:19:43.796Z,22.07
2018-12-22T21:22:10.391Z,14.17
2018-12-22T21:24:37.495Z,16.50
2018-12-22T21:27:04.095Z,14.70
2018-12-22T21:29:30.716Z,20.13
2018-12-22T21:31:57.296Z,13.93
2018-12-22T21:34:28.298Z,15.47
2018-12-22T21:36:52.487Z,20.50
2018-12-22T21:39:19.061Z,18.40
2018-12-22T21:41:45.650Z,22.30
2018-12-22T21:44:12.241Z,16.63
2018-12-22T21:46:38.927Z,18.77
2018-12-22T21:49:05.517Z,14.97
2018-12-22T21:51:32.088Z,14.40
2018-12-22T21:53:58.700Z,18.27
2018-12-22T21:56:25.300Z,18.57
2018-12-22T21:58:51.868Z,15.73
2018-12-22T22:01:18.484Z,10.83
2018-12-22T22:03:45.060Z,21.70
2018-12-22T22:06:11.653Z,16.23
2018-12-22T22:08:38.267Z,13.20
2018-12-22T22:11:04.932Z,19.13
2018-12-22T22:13:31.488Z,17.10
2018-12-22T22:15:58.085Z,17.00
2018-12-22T22:18:24.748Z,16.67
2018-12-22T22:20:51.324Z,22.60
2018-12-22T22:23:19.193Z,18.30
2018-12-22T22:25:46.085Z,22.50
2018-12-22T22:28:12.650Z,19.10
2018-12-22T22:30:39.236Z,18.00
2018-12-22T22:33:05.818Z,15.07
2018-12-22T22:35:32.425Z,15.13
2018-12-22T22:37:58.992Z,17.23
2018-12-22T22:40:25.611Z,19.43
2018-12-22T22:42:52.196Z,15.93
2018-12-22T22:45:18.779Z,22.50
2018-12-22T22:47:45.372Z,12.20
2018-12-22T22:50:11.984Z,14.50
2018-12-22T22:52:38.552Z,18.40
2018-12-22T22:55:05.239Z,24.17
2018-12-22T22:57:31.933Z,16.23
2018-12-22T22:59:58.537Z,20.23
2018-12-22T23:02:25.085Z,19.13
2018-12-22T23:04:54.534Z,12.07
2018-12-22T23:07:20.337Z,15.83
2018-12-22T23:09:46.913Z,17.13
2018-12-22T23:12:13.521Z,18.90
2018-12-22T23:14:40.104Z,17.70
2018-12-22T23:17:06.764Z,23.67
2018-12-22T23:19:35.067Z,20.30
2018-12-22T23:22:01.880Z,23.47
2018-12-22T23:24:28.526Z,19.67
2018-12-22T23:26:56.073Z,18.63
2018-12-22T23:29:22.653Z,19.67
2018-12-22T23:31:49.332Z,28.60
2018-12-22T23:34:15.928Z,16.90
2018-12-22T23:36:42.516Z,16.47
2018-12-22T23:39:09.132Z,14.97
2018-12-22T23:41:35.793Z,23.57
2018-12-22T23:44:02.428Z,18.67
2018-12-22T23:46:29.032Z,18.43
2018-12-22T23:48:55.713Z,14.07
2018-12-22T23:51:22.448Z,14.40
2018-12-22T23:53:49.069Z,14.10
2018-12-22T23:56:15.683Z,17.77
2018-12-22T23:58:42.289Z,17.23
